Fyrbyggaren — SDJP — position and weather

sailwx.info

Track history (hours):
 
Tides and Currents Weather Stations Pressure Air Temp Water Temp Dewpoint Dewpoint Depression Visibility Wind Speed Wind Dir Waves Ship Positions

Fyrbyggaren

Last reported at 2015-Aug-02 07:15 UTC. Time now 2015-Aug-02 08:16 UTC.
Position N 59°23' E 018°20'.

Length 42 m; draft 4 m.

Type: Pollution control. MMSI: 265289000.

Date/timePositionNaut miles runAvg speedWind from/ knotsBaromVisibWave heightAir tempDewpointWater temp
2015-Aug-02 07:15N 59°23' E 018°20'810.1
2015-Aug-02 06:30N 59°19' E 018°07'1 0.1
2015-Aug-01 23:22N 59°19' E 018°06'0 0.0
2015-Aug-01 18:16N 59°19' E 018°06'0 0.0
2015-Aug-01 17:28N 59°19' E 018°06'0 0.0
2015-Aug-01 16:10N 59°19' E 018°06'0 0.0
2015-Aug-01 15:22N 59°19' E 018°06'0 0.0
2015-Aug-01 11:31N 59°19' E 018°06'0 0.0
2015-Aug-01 08:25N 59°19' E 018°06'0 0.0
2015-Aug-01 07:31N 59°19' E 018°06'0 0.0
2015-Aug-01 06:28N 59°19' E 018°06'0 0.0
2015-Jul-31 18:05N 59°19' E 018°06'2 1.6
2015-Jul-31 16:33N 59°19' E 018°02'32 3.5
2015-Jul-31 07:25N 58°49' E 017°43'10 0.6
2015-Jul-30 15:33N 58°44' E 017°26'5 5.2
2015-Jul-30 14:34N 58°40' E 017°18'6 5.2
2015-Jul-30 13:29N 58°40' E 017°08'0 0.0
2015-Jul-30 12:32N 58°40' E 017°08'1 0.6
2015-Jul-30 11:33N 58°40' E 017°06'0 0.0
2015-Jul-30 10:33N 58°40' E 017°06'0 0.0
2015-Jul-30 09:33N 58°40' E 017°06'0 0.0
2015-Jul-30 08:33N 58°40' E 017°06'0 0.0
2015-Jul-30 07:33N 58°40' E 017°06'0 0.0
2015-Jul-30 06:33N 58°40' E 017°06'0 0.0
2015-Jul-30 05:33N 58°40' E 017°06'0 0.0
2015-Jul-30 04:33N 58°40' E 017°06'0 0.0
2015-Jul-30 03:33N 58°40' E 017°06'0 0.0
2015-Jul-30 02:27N 58°40' E 017°06'0 0.0
2015-Jul-30 01:33N 58°40' E 017°06'0 0.0
2015-Jul-30 00:33N 58°40' E 017°06'0 0.0
2015-Jul-29 23:33N 58°40' E 017°06'0 0.0
2015-Jul-29 22:33N 58°40' E 017°06'0 0.0
2015-Jul-29 21:27N 58°40' E 017°06'0 0.0
2015-Jul-29 20:33N 58°40' E 017°06'0 0.0
2015-Jul-29 19:27N 58°40' E 017°06'0 0.0
2015-Jul-29 12:30N 58°40' E 017°06'4 4.1
2015-Jul-29 11:31N 58°41' E 017°14'7 6.6
2015-Jul-29 10:29N 58°45' E 017°25'35 1.6
2015-Jul-28 13:04N 58°37' E 018°31'44 1.5
2015-Jul-27 08:24N 59°20' E 018°12'3 3.5
2015-Jul-27 07:29N 59°19' E 018°06'0 0.0
2015-Jul-27 06:29N 59°19' E 018°06'0 0.0
2015-Jul-27 05:23N 59°19' E 018°06'0 0.0
2015-Jul-27 04:29N 59°19' E 018°06'0 0.0
2015-Jul-27 03:17N 59°19' E 018°06'0 0.0
2015-Jul-27 02:29N 59°19' E 018°06'0 0.0
2015-Jul-27 01:29N 59°19' E 018°06'0 0.0
2015-Jul-27 00:29N 59°19' E 018°06'0 0.0
2015-Jul-26 23:23N 59°19' E 018°06'0 0.0
2015-Jul-26 22:32N 59°19' E 018°06'0 0.0
2015-Jul-26 21:11N 59°19' E 018°06'0 0.0
2015-Jul-26 18:29N 59°19' E 018°06'0 0.0
2015-Jul-26 16:32N 59°19' E 018°06'0 0.0
2015-Jul-26 14:29N 59°19' E 018°06'0 0.0
2015-Jul-26 13:29N 59°19' E 018°06'0 0.0
2015-Jul-26 12:23N 59°19' E 018°06'0 0.0
2015-Jul-26 10:14N 59°19' E 018°06'0 0.0
2015-Jul-26 09:32N 59°19' E 018°06'0 0.0
2015-Jul-26 07:23N 59°19' E 018°06'0 0.0
2015-Jul-26 06:29N 59°19' E 018°06'0 0.0
2015-Jul-26 05:32N 59°19' E 018°06'0 0.0
2015-Jul-26 04:23N 59°19' E 018°06'0 0.0
2015-Jul-26 03:32N 59°19' E 018°06'0 0.0
2015-Jul-26 02:29N 59°19' E 018°06'0 0.0
2015-Jul-26 01:29N 59°19' E 018°06'0 0.0
2015-Jul-26 00:23N 59°19' E 018°06'0 0.0
2015-Jul-25 23:23N 59°19' E 018°06'0 0.0
2015-Jul-25 22:29N 59°19' E 018°06'0 0.0
2015-Jul-25 21:29N 59°19' E 018°06'0 0.0
2015-Jul-25 20:29N 59°19' E 018°06'0 0.0
2015-Jul-25 19:29N 59°19' E 018°06'0 0.0
2015-Jul-25 18:23N 59°19' E 018°06'0 0.0
2015-Jul-25 17:17N 59°19' E 018°06'0 0.0
2015-Jul-25 16:29N 59°19' E 018°06'0 0.0
2015-Jul-25 15:26N 59°19' E 018°06'0 0.0
2015-Jul-25 14:29N 59°19' E 018°06'0 0.0
2015-Jul-25 13:32N 59°19' E 018°06'0 0.0
2015-Jul-25 12:29N 59°19' E 018°06'0 0.0
2015-Jul-25 11:32N 59°19' E 018°06'0 0.0
2015-Jul-25 10:17N 59°19' E 018°06'0 0.0
2015-Jul-25 09:29N 59°19' E 018°06'0 0.0
2015-Jul-25 08:26N 59°19' E 018°06'0 0.0
2015-Jul-25 07:14N 59°19' E 018°06'0 0.0
2015-Jul-25 06:26N 59°19' E 018°06'0 0.0
2015-Jul-25 05:26N 59°19' E 018°06'0 0.0
2015-Jul-25 04:32N 59°19' E 018°06'0 0.0
2015-Jul-25 03:14N 59°19' E 018°06'0 0.0
2015-Jul-25 02:32N 59°19' E 018°06'0 0.0
2015-Jul-25 01:32N 59°19' E 018°06'0 0.0
2015-Jul-25 00:26N 59°19' E 018°06'0 0.0
2015-Jul-24 23:32N 59°19' E 018°06'0 0.0
2015-Jul-24 21:26N 59°19' E 018°06'0 0.0
2015-Jul-24 20:32N 59°19' E 018°06'0 0.0
2015-Jul-24 19:32N 59°19' E 018°06'0 0.0
2015-Jul-24 18:32N 59°19' E 018°06'0 0.0
2015-Jul-24 17:32N 59°19' E 018°06'0 0.0
2015-Jul-24 16:26N 59°19' E 018°06'0 0.0
2015-Jul-24 15:32N 59°19' E 018°06'0 0.0
2015-Jul-24 13:20N 59°19' E 018°06'0 0.0
2015-Jul-24 12:32N 59°19' E 018°06'0 0.0
2015-Jul-24 11:32N 59°19' E 018°06'0 0.0
2015-Jul-24 10:32N 59°19' E 018°06'0 0.0
2015-Jul-24 09:23N 59°19' E 018°06'0 0.0
2015-Jul-24 08:23N 59°19' E 018°06'0 0.0
2015-Jul-24 07:32N 59°19' E 018°06'0 0.0
2015-Jul-24 06:32N 59°19' E 018°06'0 0.0
2015-Jul-24 05:32N 59°19' E 018°06'0 0.0
2015-Jul-24 04:32N 59°19' E 018°06'0 0.0
2015-Jul-24 03:32N 59°19' E 018°06'0 0.0
2015-Jul-24 02:32N 59°19' E 018°06'0 0.0
2015-Jul-24 01:32N 59°19' E 018°06'0 0.0
2015-Jul-24 00:32N 59°19' E 018°06'0 0.0
2015-Jul-23 23:29N 59°19' E 018°06'0 0.0
2015-Jul-23 20:08N 59°19' E 018°06'0 0.0
2015-Jul-23 19:08N 59°19' E 018°06'0 0.0
2015-Jul-23 18:32N 59°19' E 018°06'0 0.0
2015-Jul-23 17:32N 59°19' E 018°06'0 0.0
2015-Jul-23 16:32N 59°19' E 018°06'0 0.0
2015-Jul-23 15:11N 59°19' E 018°06'0 0.0
2015-Jul-23 14:32N 59°19' E 018°06'0 0.0
2015-Jul-23 13:32N 59°19' E 018°06'0 0.0
2015-Jul-23 12:32N 59°19' E 018°06'0 0.0
2015-Jul-23 11:32N 59°19' E 018°06'0 0.0
2015-Jul-23 10:29N 59°19' E 018°06'0 0.0
2015-Jul-23 09:23N 59°19' E 018°06'0 0.0
2015-Jul-23 08:23N 59°19' E 018°06'0 0.0
2015-Jul-23 07:29N 59°19' E 018°06'  
Track history (hours):
 
Tides and Currents Weather Stations Pressure Air Temp Water Temp Dewpoint Dewpoint Depression Visibility Wind Speed Wind Dir Waves Ship Positions

Fyrbyggaren

Last reported at 2015-Aug-02 07:15 UTC. Time now 2015-Aug-02 08:16 UTC.
Position N 59°23' E 018°20'.

Length 42 m; draft 4 m.

Type: Pollution control. MMSI: 265289000.

Date/timePositionNaut miles runAvg speedWind from/ knotsBaromVisibWave heightAir tempDewpointWater temp
2015-Aug-02 07:15N 59°23' E 018°20'810.1
2015-Aug-02 06:30N 59°19' E 018°07'1 0.1
2015-Aug-01 23:22N 59°19' E 018°06'0 0.0
2015-Aug-01 18:16N 59°19' E 018°06'0 0.0
2015-Aug-01 17:28N 59°19' E 018°06'0 0.0
2015-Aug-01 16:10N 59°19' E 018°06'0 0.0
2015-Aug-01 15:22N 59°19' E 018°06'0 0.0
2015-Aug-01 11:31N 59°19' E 018°06'0 0.0
2015-Aug-01 08:25N 59°19' E 018°06'0 0.0
2015-Aug-01 07:31N 59°19' E 018°06'0 0.0
2015-Aug-01 06:28N 59°19' E 018°06'0 0.0
2015-Jul-31 18:05N 59°19' E 018°06'2 1.6
2015-Jul-31 16:33N 59°19' E 018°02'32 3.5
2015-Jul-31 07:25N 58°49' E 017°43'10 0.6
2015-Jul-30 15:33N 58°44' E 017°26'5 5.2
2015-Jul-30 14:34N 58°40' E 017°18'6 5.2
2015-Jul-30 13:29N 58°40' E 017°08'0 0.0
2015-Jul-30 12:32N 58°40' E 017°08'1 0.6
2015-Jul-30 11:33N 58°40' E 017°06'0 0.0
2015-Jul-30 10:33N 58°40' E 017°06'0 0.0
2015-Jul-30 09:33N 58°40' E 017°06'0 0.0
2015-Jul-30 08:33N 58°40' E 017°06'0 0.0
2015-Jul-30 07:33N 58°40' E 017°06'0 0.0
2015-Jul-30 06:33N 58°40' E 017°06'0 0.0
2015-Jul-30 05:33N 58°40' E 017°06'0 0.0
2015-Jul-30 04:33N 58°40' E 017°06'0 0.0
2015-Jul-30 03:33N 58°40' E 017°06'0 0.0
2015-Jul-30 02:27N 58°40' E 017°06'0 0.0
2015-Jul-30 01:33N 58°40' E 017°06'0 0.0
2015-Jul-30 00:33N 58°40' E 017°06'0 0.0
2015-Jul-29 23:33N 58°40' E 017°06'0 0.0
2015-Jul-29 22:33N 58°40' E 017°06'0 0.0
2015-Jul-29 21:27N 58°40' E 017°06'0 0.0
2015-Jul-29 20:33N 58°40' E 017°06'0 0.0
2015-Jul-29 19:27N 58°40' E 017°06'0 0.0
2015-Jul-29 12:30N 58°40' E 017°06'4 4.1
2015-Jul-29 11:31N 58°41' E 017°14'7 6.6
2015-Jul-29 10:29N 58°45' E 017°25'35 1.6
2015-Jul-28 13:04N 58°37' E 018°31'44 1.5
2015-Jul-27 08:24N 59°20' E 018°12'3 3.5
2015-Jul-27 07:29N 59°19' E 018°06'0 0.0
2015-Jul-27 06:29N 59°19' E 018°06'0 0.0
2015-Jul-27 05:23N 59°19' E 018°06'0 0.0
2015-Jul-27 04:29N 59°19' E 018°06'0 0.0
2015-Jul-27 03:17N 59°19' E 018°06'0 0.0
2015-Jul-27 02:29N 59°19' E 018°06'0 0.0
2015-Jul-27 01:29N 59°19' E 018°06'0 0.0
2015-Jul-27 00:29N 59°19' E 018°06'0 0.0
2015-Jul-26 23:23N 59°19' E 018°06'0 0.0
2015-Jul-26 22:32N 59°19' E 018°06'0 0.0
2015-Jul-26 21:11N 59°19' E 018°06'0 0.0
2015-Jul-26 18:29N 59°19' E 018°06'0 0.0
2015-Jul-26 16:32N 59°19' E 018°06'0 0.0
2015-Jul-26 14:29N 59°19' E 018°06'0 0.0
2015-Jul-26 13:29N 59°19' E 018°06'0 0.0
2015-Jul-26 12:23N 59°19' E 018°06'0 0.0
2015-Jul-26 10:14N 59°19' E 018°06'0 0.0
2015-Jul-26 09:32N 59°19' E 018°06'0 0.0
2015-Jul-26 07:23N 59°19' E 018°06'0 0.0
2015-Jul-26 06:29N 59°19' E 018°06'0 0.0
2015-Jul-26 05:32N 59°19' E 018°06'0 0.0
2015-Jul-26 04:23N 59°19' E 018°06'0 0.0
2015-Jul-26 03:32N 59°19' E 018°06'0 0.0
2015-Jul-26 02:29N 59°19' E 018°06'0 0.0
2015-Jul-26 01:29N 59°19' E 018°06'0 0.0
2015-Jul-26 00:23N 59°19' E 018°06'0 0.0
2015-Jul-25 23:23N 59°19' E 018°06'0 0.0
2015-Jul-25 22:29N 59°19' E 018°06'0 0.0
2015-Jul-25 21:29N 59°19' E 018°06'0 0.0
2015-Jul-25 20:29N 59°19' E 018°06'0 0.0
2015-Jul-25 19:29N 59°19' E 018°06'0 0.0
2015-Jul-25 18:23N 59°19' E 018°06'0 0.0
2015-Jul-25 17:17N 59°19' E 018°06'0 0.0
2015-Jul-25 16:29N 59°19' E 018°06'0 0.0
2015-Jul-25 15:26N 59°19' E 018°06'0 0.0
2015-Jul-25 14:29N 59°19' E 018°06'0 0.0
2015-Jul-25 13:32N 59°19' E 018°06'0 0.0
2015-Jul-25 12:29N 59°19' E 018°06'0 0.0
2015-Jul-25 11:32N 59°19' E 018°06'0 0.0
2015-Jul-25 10:17N 59°19' E 018°06'0 0.0
2015-Jul-25 09:29N 59°19' E 018°06'0 0.0
2015-Jul-25 08:26N 59°19' E 018°06'0 0.0
2015-Jul-25 07:14N 59°19' E 018°06'0 0.0
2015-Jul-25 06:26N 59°19' E 018°06'0 0.0
2015-Jul-25 05:26N 59°19' E 018°06'0 0.0
2015-Jul-25 04:32N 59°19' E 018°06'0 0.0
2015-Jul-25 03:14N 59°19' E 018°06'0 0.0
2015-Jul-25 02:32N 59°19' E 018°06'0 0.0
2015-Jul-25 01:32N 59°19' E 018°06'0 0.0
2015-Jul-25 00:26N 59°19' E 018°06'0 0.0
2015-Jul-24 23:32N 59°19' E 018°06'0 0.0
2015-Jul-24 21:26N 59°19' E 018°06'0 0.0
2015-Jul-24 20:32N 59°19' E 018°06'0 0.0
2015-Jul-24 19:32N 59°19' E 018°06'0 0.0
2015-Jul-24 18:32N 59°19' E 018°06'0 0.0
2015-Jul-24 17:32N 59°19' E 018°06'0 0.0
2015-Jul-24 16:26N 59°19' E 018°06'0 0.0
2015-Jul-24 15:32N 59°19' E 018°06'0 0.0
2015-Jul-24 13:20N 59°19' E 018°06'0 0.0
2015-Jul-24 12:32N 59°19' E 018°06'0 0.0
2015-Jul-24 11:32N 59°19' E 018°06'0 0.0
2015-Jul-24 10:32N 59°19' E 018°06'0 0.0
2015-Jul-24 09:23N 59°19' E 018°06'0 0.0
2015-Jul-24 08:23N 59°19' E 018°06'0 0.0
2015-Jul-24 07:32N 59°19' E 018°06'0 0.0
2015-Jul-24 06:32N 59°19' E 018°06'0 0.0
2015-Jul-24 05:32N 59°19' E 018°06'0 0.0
2015-Jul-24 04:32N 59°19' E 018°06'0 0.0
2015-Jul-24 03:32N 59°19' E 018°06'0 0.0
2015-Jul-24 02:32N 59°19' E 018°06'0 0.0
2015-Jul-24 01:32N 59°19' E 018°06'0 0.0
2015-Jul-24 00:32N 59°19' E 018°06'0 0.0
2015-Jul-23 23:29N 59°19' E 018°06'0 0.0
2015-Jul-23 20:08N 59°19' E 018°06'0 0.0
2015-Jul-23 19:08N 59°19' E 018°06'0 0.0
2015-Jul-23 18:32N 59°19' E 018°06'0 0.0
2015-Jul-23 17:32N 59°19' E 018°06'0 0.0
2015-Jul-23 16:32N 59°19' E 018°06'0 0.0
2015-Jul-23 15:11N 59°19' E 018°06'0 0.0
2015-Jul-23 14:32N 59°19' E 018°06'0 0.0
2015-Jul-23 13:32N 59°19' E 018°06'0 0.0
2015-Jul-23 12:32N 59°19' E 018°06'0 0.0
2015-Jul-23 11:32N 59°19' E 018°06'0 0.0
2015-Jul-23 10:29N 59°19' E 018°06'0 0.0
2015-Jul-23 09:23N 59°19' E 018°06'0 0.0
2015-Jul-23 08:23N 59°19' E 018°06'0 0.0
2015-Jul-23 07:29N 59°19' E 018°06'  

Dump ship's entire track history